Terminal Aerodrome Forecast
Issued by NWS

Home | Current Version | Previous Version | Text Only | Print | Product List | Glossary On
Versions: 1 2 3 4 5 6 7 8 9 10 11 12 13 14 15 16 17
000
FTUS43 KICT 051730
TAFSLN
TAF
KSLN 051730Z 0518/0618 18017G25KT P6SM SCT080 BKN300
     FM060200 18013KT P6SM SCT100 BKN300=

USA.gov is the U.S. government's official web portal to all federal, state and local government web resources and services.